Time;durP1;ratioP1;P1;durP2;ratioP2;P2;SDS_P1;SDS_P2;PMS_P1;PMS_P2;Temp;Humidity;BMP_temperature;BMP_pressure;BME280_temperature;BME280_humidity;BME280_pressure;Samples;Min_cycle;Max_cycle;Signal;HPM_P1;HPM_P2
2021/12/25 00:00:51;;;;;;;11.75;9.57;;;;;;;6.95;81.77;100300.56;3583609;40;20048;-65
2021/12/25 00:03:17;;;;;;;11.85;8.90;;;;;;;6.81;81.95;100266.59;3583022;40;20130;-66
2021/12/25 00:05:49;;;;;;;10.65;9.25;;;;;;;6.94;81.61;100290.81;3583239;40;20044;-66
2021/12/25 00:08:15;;;;;;;12.07;9.05;;;;;;;6.86;81.99;100285.91;3578761;40;20052;-65
2021/12/25 00:10:40;;;;;;;12.02;9.93;;;;;;;6.60;81.70;100235.75;3582905;40;20688;-66
2021/12/25 00:13:06;;;;;;;14.25;10.57;;;;;;;6.89;81.31;100290.22;3582731;40;20064;-66
2021/12/25 00:15:32;;;;;;;13.05;10.55;;;;;;;6.88;82.13;100294.72;3582300;40;20053;-66
2021/12/25 00:17:57;;;;;;;11.73;10.10;;;;;;;6.84;81.77;100298.47;3583822;40;20498;-66
2021/12/25 00:20:23;;;;;;;12.70;10.27;;;;;;;6.84;81.75;100290.47;3583023;40;20052;-66
2021/12/25 00:22:48;;;;;;;13.70;10.63;;;;;;;6.85;82.30;100294.00;3580345;40;20087;-66
2021/12/25 00:25:14;;;;;;;12.35;10.20;;;;;;;6.83;81.43;100286.06;3583652;40;20052;-65
2021/12/25 00:27:52;;;;;;;14.00;11.38;;;;;;;6.73;81.97;100264.34;3579474;40;20052;-66
2021/12/25 00:30:25;;;;;;;14.52;11.18;;;;;;;6.84;81.82;100276.25;3578707;40;20045;-66
2021/12/25 00:32:55;;;;;;;14.90;11.93;;;;;;;6.84;81.98;100276.25;3580572;40;20068;-65
2021/12/25 00:35:22;;;;;;;17.13;12.05;;;;;;;6.83;82.40;100275.38;3579091;40;20343;-65
2021/12/25 00:37:48;;;;;;;18.65;13.90;;;;;;;6.85;81.81;100275.28;3582047;40;20040;-65
2021/12/25 00:40:14;;;;;;;16.52;13.15;;;;;;;6.80;82.15;100272.88;3571988;40;20096;-65
2021/12/25 00:42:40;;;;;;;16.33;12.45;;;;;;;6.67;81.79;100254.00;3582261;40;20402;-65
2021/12/25 00:45:06;;;;;;;16.27;12.75;;;;;;;6.64;82.13;100247.97;3583180;40;20130;-66
2021/12/25 00:47:32;;;;;;;17.48;12.43;;;;;;;6.67;82.21;100247.81;3581264;40;20056;-66
2021/12/25 00:49:57;;;;;;;18.17;13.25;;;;;;;6.85;81.77;100283.31;3581539;40;20078;-66
2021/12/25 00:52:23;;;;;;;19.05;14.23;;;;;;;6.84;82.36;100285.13;3572460;40;20056;-66
2021/12/25 00:54:48;;;;;;;18.27;13.40;;;;;;;6.83;81.68;100285.22;3580424;40;20049;-66
2021/12/25 00:57:14;;;;;;;16.65;12.55;;;;;;;6.83;81.98;100279.88;3580888;40;20104;-65
2021/12/25 00:59:40;;;;;;;17.63;13.40;;;;;;;6.85;81.91;100285.97;3581528;40;20189;-66
2021/12/25 01:02:05;;;;;;;17.30;13.55;;;;;;;6.85;81.86;100291.31;3583130;40;20044;-66
2021/12/25 01:04:31;;;;;;;19.10;13.68;;;;;;;6.81;81.80;100281.75;3580625;40;20154;-66
2021/12/25 01:06:57;;;;;;;22.15;16.15;;;;;;;6.80;82.04;100286.25;3580166;40;20150;-66
2021/12/25 01:09:22;;;;;;;19.85;14.95;;;;;;;6.81;82.14;100285.28;3582784;40;20058;-66
2021/12/25 01:11:50;;;;;;;19.70;14.55;;;;;;;6.81;81.56;100284.44;3582824;40;20226;-66
2021/12/25 01:14:29;;;;;;;18.83;15.20;;;;;;;6.53;81.51;100240.53;3581004;40;20051;-66
2021/12/25 01:17:18;;;;;;;19.52;14.73;;;;;;;6.69;82.24;100270.81;3583029;40;20040;-66
2021/12/25 01:32:48;;;;;;;21.42;16.13;;;;;;;6.74;82.34;100273.22;3581225;40;20044;-66
2021/12/25 01:38:00;;;;;;;24.25;17.10;;;;;;;6.74;82.33;100278.56;3583410;40;20405;-66
2021/12/25 01:48:50;;;;;;;;;;;;;;;6.56;82.30;100256.38;3550886;40;20034;-66
2021/12/25 01:51:16;;;;;;;24.60;18.52;;;;;;;6.54;82.17;100262.78;3564168;40;20262;-66
2021/12/25 01:53:42;;;;;;;27.92;20.08;;;;;;;6.64;81.71;100269.34;3580737;40;20316;-66
2021/12/25 01:56:08;;;;;;;26.60;21.08;;;;;;;6.66;82.83;100270.97;3581047;40;20060;-64
2021/12/25 01:58:35;;;;;;;27.48;21.65;;;;;;;6.64;81.82;100269.34;3570464;40;20067;-66
2021/12/25 02:01:08;;;;;;;29.48;22.63;;;;;;;5.90;82.46;100145.16;3581712;40;20327;-66
2021/12/25 02:03:36;;;;;;;29.35;22.80;;;;;;;6.64;81.81;100270.19;3581699;40;20106;-66
2021/12/25 02:06:08;;;;;;;31.15;22.77;;;;;;;6.64;82.46;100272.00;3582840;40;20048;-66
2021/12/25 02:08:37;;;;;;;29.92;23.45;;;;;;;6.65;82.79;100271.03;3582288;40;20052;-66
2021/12/25 02:11:05;;;;;;;31.98;23.75;;;;;;;6.63;81.99;100273.81;3582521;40;20048;-66
2021/12/25 02:13:32;;;;;;;29.98;23.77;;;;;;;6.58;82.13;100265.19;3615126;22;21243;-66
2021/12/25 02:16:01;;;;;;;30.88;23.83;;;;;;;6.65;81.93;100271.91;3578424;40;20061;-64
2021/12/25 02:18:56;;;;;;;34.47;24.88;;;;;;;6.58;82.07;100265.19;3581061;40;20053;-65
2021/12/25 02:21:23;;;;;;;31.00;23.45;;;;;;;6.63;81.62;100267.59;3575287;40;20048;-64
2021/12/25 02:23:49;;;;;;;34.42;25.35;;;;;;;6.62;81.45;100266.72;3578861;40;20049;-63
2021/12/25 02:26:17;;;;;;;32.13;26.05;;;;;;;6.60;81.60;100273.97;3576778;40;20114;-63
2021/12/25 02:28:44;;;;;;;37.92;27.60;;;;;;;6.59;81.46;100266.91;3574456;40;20104;-64
2021/12/25 02:31:15;;;;;;;35.67;27.25;;;;;;;6.55;81.84;100265.34;3574190;40;20184;-63
2021/12/25 02:33:41;;;;;;;36.42;26.88;;;;;;;6.53;81.38;100259.22;3572160;40;20082;-62
2021/12/25 02:36:10;;;;;;;35.58;26.20;;;;;;;6.53;80.77;100263.69;3576879;40;20052;-63
2021/12/25 02:38:37;;;;;;;31.65;24.80;;;;;;;6.50;81.11;100273.63;3574879;40;20052;-63
2021/12/25 02:41:05;;;;;;;32.88;24.45;;;;;;;6.48;81.11;100264.81;3573769;40;20051;-64
2021/12/25 02:43:31;;;;;;;32.08;24.00;;;;;;;6.44;81.30;100265.09;3571258;40;20295;-62
2021/12/25 02:46:02;;;;;;;29.17;23.15;;;;;;;6.44;81.26;100270.41;3578605;40;20061;-63
2021/12/25 02:48:28;;;;;;;28.48;22.02;;;;;;;6.44;81.52;100275.75;3573365;40;20107;-62
2021/12/25 02:50:54;;;;;;;31.17;22.52;;;;;;;6.44;80.80;100273.09;3576924;40;20059;-62
2021/12/25 02:53:20;;;;;;;33.53;23.42;;;;;;;6.16;80.90;100233.66;3573119;40;20080;-63
2021/12/25 02:55:46;;;;;;;28.17;21.20;;;;;;;6.21;81.00;100251.13;3573925;40;20048;-64
2021/12/25 02:58:15;;;;;;;27.25;20.80;;;;;;;6.36;81.01;100272.63;3566809;40;20663;-63
2021/12/25 03:01:00;;;;;;;28.45;20.10;;;;;;;6.34;81.02;100274.50;3570158;40;20065;-62
2021/12/25 03:03:27;;;;;;;27.27;19.88;;;;;;;6.31;80.91;100275.53;3571246;40;20128;-63
2021/12/25 03:05:53;;;;;;;25.92;20.13;;;;;;;6.05;81.47;100231.53;3567295;40;20072;-64
2021/12/25 03:08:20;;;;;;;26.75;19.75;;;;;;;6.26;81.38;100274.91;3572284;40;20072;-62
2021/12/25 03:10:48;;;;;;;29.63;20.85;;;;;;;6.06;81.13;100246.63;3570901;40;20056;-63
2021/12/25 03:15:47;;;;;;;22.92;18.15;;;;;;;6.15;81.14;100282.63;3570677;40;20048;-63
2021/12/25 03:18:23;;;;;;;20.37;15.87;;;;;;;5.98;80.36;100275.50;3572653;40;20096;-63
2021/12/25 03:20:53;;;;;;;20.75;16.75;;;;;;;5.91;80.57;100280.25;3567774;40;20263;-64
2021/12/25 03:23:24;;;;;;;21.55;16.58;;;;;;;5.92;80.85;100297.13;3569453;40;20045;-62
2021/12/25 03:25:53;;;;;;;21.25;16.40;;;;;;;5.84;80.41;100296.66;3574085;40;20062;-63
2021/12/25 03:28:24;;;;;;;22.23;16.83;;;;;;;5.75;80.44;100301.50;3569811;40;20061;-62
2021/12/25 03:30:50;;;;;;;22.10;16.48;;;;;;;5.70;80.95;100306.19;3572252;40;20480;-61
2021/12/25 03:33:20;;;;;;;22.63;16.20;;;;;;;5.63;81.10;100304.78;3570311;40;20060;-62
2021/12/25 03:35:47;;;;;;;25.02;17.15;;;;;;;5.57;81.38;100310.41;3572191;40;20052;-64
2021/12/25 03:38:16;;;;;;;23.23;16.92;;;;;;;5.46;81.07;100294.97;3568389;40;20115;-63
2021/12/25 03:40:42;;;;;;;26.17;18.42;;;;;;;5.51;81.48;100316.06;3568940;40;20474;-63
2021/12/25 03:43:09;;;;;;;25.70;18.45;;;;;;;5.46;81.20;100310.09;3571892;40;20107;-63
2021/12/25 03:45:35;;;;;;;24.15;17.95;;;;;;;5.37;81.01;100308.75;3571416;40;20065;-63
2021/12/25 03:48:14;;;;;;;23.75;17.83;;;;;;;5.37;80.99;100311.41;3572559;40;20119;-62
2021/12/25 03:58:55;;;;;;;21.60;16.40;;;;;;;5.15;80.74;100306.25;3570749;40;20492;-63
2021/12/25 04:06:50;;;;;;;19.52;15.60;;;;;;;5.07;80.34;100324.38;3572692;40;20276;-63
2021/12/25 04:09:28;;;;;;;21.35;16.23;;;;;;;4.98;80.31;100316.81;3574400;40;20052;-64
2021/12/25 04:11:58;;;;;;;22.50;16.55;;;;;;;4.97;80.44;100331.09;3572712;40;20048;-62
2021/12/25 04:14:25;;;;;;;19.02;15.38;;;;;;;4.93;80.15;100333.03;3561186;40;20064;-63
2021/12/25 04:16:51;;;;;;;20.55;15.85;;;;;;;4.62;79.38;100288.31;3569918;40;20049;-64
2021/12/25 04:19:18;;;;;;;21.98;16.52;;;;;;;4.85;80.40;100341.38;3579333;40;20141;-64
2021/12/25 04:21:58;;;;;;;20.80;15.90;;;;;;;4.78;80.48;100337.25;3568722;40;20083;-62
2021/12/25 04:24:26;;;;;;;18.80;15.38;;;;;;;4.72;79.54;100324.22;3568631;40;20119;-63
2021/12/25 04:26:52;;;;;;;18.60;15.45;;;;;;;4.75;80.28;100341.84;3572145;40;20084;-63
2021/12/25 04:47:53;;;;;;;20.55;16.95;;;;;;;4.58;81.11;100361.25;3572638;40;20051;-63
2021/12/25 05:04:17;;;;;;;23.42;19.02;;;;;;;4.05;79.88;100381.28;3573252;40;20346;-64
2021/12/25 05:06:43;;;;;;;22.92;18.92;;;;;;;4.07;79.41;100384.75;3572870;40;20072;-65
2021/12/25 05:09:08;;;;;;;22.20;18.77;;;;;;;4.02;79.44;100396.50;3572349;40;20079;-65
2021/12/25 05:11:34;;;;;;;24.50;19.38;;;;;;;3.90;79.69;100381.91;3565628;40;20403;-65
2021/12/25 05:13:59;;;;;;;23.67;18.15;;;;;;;3.88;79.23;100394.41;3575349;40;20052;-65
2021/12/25 05:16:26;;;;;;;22.65;18.48;;;;;;;3.88;79.24;100413.88;3569287;40;20073;-66
2021/12/25 05:18:53;;;;;;;22.75;18.40;;;;;;;3.79;78.66;100398.31;3574714;40;20102;-66
2021/12/25 05:21:20;;;;;;;22.83;18.88;;;;;;;3.71;78.96;100397.75;3563073;40;20056;-66
2021/12/25 05:23:47;;;;;;;21.75;18.30;;;;;;;3.65;78.86;100408.66;3572365;40;20057;-69
2021/12/25 05:26:14;;;;;;;23.58;18.33;;;;;;;3.42;78.79;100391.78;3572193;40;20056;-66
2021/12/25 05:28:45;;;;;;;24.25;19.05;;;;;;;3.42;79.06;100402.44;3572928;40;20049;-67
2021/12/25 05:31:15;;;;;;;24.27;19.30;;;;;;;3.39;79.23;100413.16;3576347;40;20053;-67
2021/12/25 05:33:42;;;;;;;24.38;18.75;;;;;;;3.14;79.62;100377.84;3570099;40;20056;-67
2021/12/25 05:36:10;;;;;;;24.75;19.30;;;;;;;3.28;79.07;100419.84;3573356;40;20052;-68
2021/12/25 05:38:36;;;;;;;24.77;19.95;;;;;;;3.05;79.82;100391.53;3567684;40;20060;-67
2021/12/25 05:41:03;;;;;;;26.00;19.95;;;;;;;3.20;80.10;100423.66;3571642;40;20069;-68
2021/12/25 05:43:29;;;;;;;26.42;20.40;;;;;;;3.16;79.65;100423.81;3571596;40;20556;-68
2021/12/25 05:45:54;;;;;;;22.98;18.63;;;;;;;3.07;79.31;100408.22;3572423;40;20045;-68
2021/12/25 05:48:21;;;;;;;23.02;18.42;;;;;;;3.08;79.92;100417.97;3569800;40;20426;-68
2021/12/25 05:50:47;;;;;;;24.42;19.17;;;;;;;3.00;79.79;100402.28;3570540;40;20045;-67
2021/12/25 05:53:13;;;;;;;23.40;19.08;;;;;;;3.08;79.31;100423.25;3568917;40;20057;-67
2021/12/25 05:55:38;;;;;;;25.75;19.25;;;;;;;3.06;80.00;100425.09;3562200;40;20088;-67
2021/12/25 05:58:07;;;;;;;24.65;19.02;;;;;;;3.01;80.43;100427.91;3570909;40;20116;-68
2021/12/25 06:00:36;;;;;;;22.88;18.38;;;;;;;3.00;79.77;100432.34;3573007;40;20049;-67
2021/12/25 06:03:03;;;;;;;26.63;19.10;;;;;;;2.98;80.27;100428.03;3574747;40;20059;-67
2021/12/25 06:05:30;;;;;;;23.50;18.17;;;;;;;2.96;79.82;100441.38;3562070;40;20068;-68
2021/12/25 06:07:56;;;;;;;25.88;18.92;;;;;;;2.95;79.92;100446.72;3572763;40;20088;-67
2021/12/25 06:10:22;;;;;;;25.75;20.15;;;;;;;2.86;79.55;100437.31;3568729;40;20296;-69
2021/12/25 06:12:50;;;;;;;23.77;18.45;;;;;;;2.84;79.93;100439.16;3571413;40;20056;-68
2021/12/25 06:15:20;;;;;;;26.08;19.73;;;;;;;2.62;80.40;100403.69;3572057;40;20049;-67
2021/12/25 06:17:47;;;;;;;25.77;19.05;;;;;;;2.83;80.16;100445.41;3572192;40;20096;-67
2021/12/25 06:20:14;;;;;;;23.85;19.15;;;;;;;2.69;79.57;100431.75;3574810;40;20069;-68
2021/12/25 06:22:40;;;;;;;23.42;18.75;;;;;;;2.61;80.41;100433.81;3570970;40;20130;-68
2021/12/25 06:25:07;;;;;;;24.70;19.23;;;;;;;2.72;79.94;100452.88;3578860;40;20048;-69
2021/12/25 06:27:33;;;;;;;24.88;18.75;;;;;;;2.36;79.33;100402.84;3566158;40;20338;-68
2021/12/25 06:29:59;;;;;;;26.45;19.85;;;;;;;2.66;80.35;100455.72;3572989;40;20064;-69
2021/12/25 06:32:25;;;;;;;27.77;20.20;;;;;;;2.63;80.77;100458.50;3572505;40;20069;-68
2021/12/25 06:34:51;;;;;;;25.30;18.23;;;;;;;2.48;80.56;100444.00;3569606;40;20101;-69
2021/12/25 06:37:18;;;;;;;24.20;18.48;;;;;;;2.61;80.11;100469.19;3576265;40;20051;-69
2021/12/25 06:39:47;;;;;;;23.55;18.42;;;;;;;2.60;80.31;100467.44;3575172;40;20060;-67
2021/12/25 06:42:12;;;;;;;23.83;17.67;;;;;;;2.61;80.77;100465.66;3571731;40;20409;-67
2021/12/25 06:44:38;;;;;;;30.15;22.98;;;;;;;2.61;80.15;100463.88;3572099;40;20049;-67
2021/12/25 06:47:04;;;;;;;25.15;19.02;;;;;;;2.62;80.33;100462.06;3576676;40;20067;-68
2021/12/25 06:49:30;;;;;;;23.73;18.42;;;;;;;2.57;79.57;100462.25;3575722;40;20069;-68
2021/12/25 06:51:56;;;;;;;25.02;16.95;;;;;;;2.60;80.41;100474.50;3572297;40;20056;-67
2021/12/25 06:54:21;;;;;;;22.00;17.42;;;;;;;2.54;80.11;100463.22;3570831;40;20160;-67
2021/12/25 06:56:48;;;;;;;20.48;16.25;;;;;;;2.55;80.15;100472.91;3570535;40;20087;-67
2021/12/25 06:59:16;;;;;;;21.73;16.60;;;;;;;2.54;80.41;100476.47;3565971;40;20135;-66
2021/12/25 07:01:42;;;;;;;21.13;15.60;;;;;;;2.32;79.43;100448.97;3571962;40;20067;-66
2021/12/25 07:04:09;;;;;;;20.17;15.57;;;;;;;2.50;80.53;100490.75;3572601;40;20122;-66
2021/12/25 07:06:36;;;;;;;20.48;15.38;;;;;;;2.50;80.23;100488.09;3571922;40;20083;-67
2021/12/25 07:09:07;;;;;;;20.70;15.93;;;;;;;2.25;79.57;100447.41;3569846;40;20129;-66
2021/12/25 07:11:34;;;;;;;22.42;17.08;;;;;;;2.39;80.00;100476.13;3574376;40;20049;-66
2021/12/25 07:14:03;;;;;;;23.15;18.05;;;;;;;2.49;79.91;100496.97;3572673;40;20067;-67
2021/12/25 07:16:30;;;;;;;20.48;15.45;;;;;;;2.49;79.96;100494.34;3568476;40;20072;-67
2021/12/25 07:18:55;;;;;;;18.08;14.20;;;;;;;2.41;79.95;100496.41;3572340;40;20111;-67
2021/12/25 07:21:21;;;;;;;21.67;15.93;;;;;;;2.45;80.29;100495.38;3570601;40;20052;-67
2021/12/25 07:23:47;;;;;;;18.70;14.70;;;;;;;2.29;80.72;100462.31;3570662;40;20292;-67
2021/12/25 07:26:16;;;;;;;20.58;15.50;;;;;;;2.48;80.57;100500.56;3570790;40;20052;-67
2021/12/25 07:28:42;;;;;;;21.83;16.50;;;;;;;2.40;80.31;100491.13;3571875;40;20059;-68
2021/12/25 07:31:08;;;;;;;20.92;15.52;;;;;;;2.44;80.35;100512.22;3570674;40;20049;-67
2021/12/25 07:33:36;;;;;;;20.60;15.23;;;;;;;2.37;79.73;100502.69;3571629;40;20083;-66
2021/12/25 07:36:04;;;;;;;19.70;14.93;;;;;;;2.38;80.33;100517.72;3571152;40;20060;-67
2021/12/25 07:38:29;;;;;;;17.20;13.73;;;;;;;2.39;80.22;100524.75;3569951;40;20065;-68
2021/12/25 07:40:55;;;;;;;17.23;14.23;;;;;;;2.25;79.82;100511.06;3572346;40;20060;-67
2021/12/25 07:43:21;;;;;;;16.83;13.10;;;;;;;2.12;79.69;100494.69;3570668;40;20123;-67
2021/12/25 07:45:48;;;;;;;23.55;13.05;;;;;;;2.01;79.62;100488.88;3571036;40;20059;-67
2021/12/25 07:48:18;;;;;;;16.02;12.20;;;;;;;2.18;79.79;100517.47;3571568;40;20055;-67
2021/12/25 07:50:43;;;;;;;16.10;12.75;;;;;;;2.20;79.70;100524.47;3571924;40;20318;-67
2021/12/25 07:53:10;;;;;;;17.85;13.00;;;;;;;2.18;79.86;100517.47;3577065;40;20052;-66
2021/12/25 07:55:36;;;;;;;14.77;11.23;;;;;;;2.19;79.65;100524.50;3567526;40;20093;-67
2021/12/25 07:58:03;;;;;;;15.25;12.00;;;;;;;2.18;79.27;100530.75;3572465;40;20057;-67
2021/12/25 08:00:29;;;;;;;17.08;12.27;;;;;;;2.15;79.66;100521.09;3572774;40;20056;-67
2021/12/25 08:02:55;;;;;;;16.33;11.60;;;;;;;2.19;79.25;100537.75;3576658;40;20454;-67
2021/12/25 08:05:21;;;;;;;16.55;11.30;;;;;;;2.04;79.12;100515.28;3574518;40;20063;-67
2021/12/25 08:07:48;;;;;;;15.75;12.10;;;;;;;2.15;79.05;100546.75;3572439;40;20110;-67
2021/12/25 08:10:17;;;;;;;17.65;11.15;;;;;;;2.15;79.25;100537.00;3570933;40;20064;-66
2021/12/25 08:12:51;;;;;;;14.35;10.90;;;;;;;2.12;78.90;100541.53;3571507;40;20080;-66
2021/12/25 08:15:19;;;;;;;;;;;;;;;2.15;78.40;100549.41;3607774;23;20344;-67
2021/12/25 08:17:45;;;;;;;12.65;10.38;;;;;;;2.11;79.23;100551.28;3583204;40;19951;-66
2021/12/25 08:20:12;;;;;;;16.75;11.38;;;;;;;2.13;78.64;100557.41;3583660;40;20313;-67
2021/12/25 08:22:39;;;;;;;14.27;11.10;;;;;;;2.16;79.71;100556.44;3583645;40;20055;-67
2021/12/25 08:25:08;;;;;;;14.32;10.40;;;;;;;2.08;79.24;100554.88;3581599;40;20062;-67
2021/12/25 08:27:34;;;;;;;12.40;9.90;;;;;;;2.11;79.47;100561.88;3572445;40;20060;-67
2021/12/25 08:30:00;;;;;;;14.73;10.88;;;;;;;2.14;79.19;100566.22;3582499;40;20060;-67
2021/12/25 08:32:26;;;;;;;12.13;9.85;;;;;;;2.16;78.92;100565.28;3578591;40;20049;-68
2021/12/25 08:34:52;;;;;;;16.63;10.52;;;;;;;1.97;79.02;100530.53;3577218;40;20052;-68
2021/12/25 08:37:23;;;;;;;12.98;10.60;;;;;;;2.18;78.35;100573.16;3576162;40;20578;-67
2021/12/25 08:39:51;;;;;;;11.35;9.40;;;;;;;2.12;78.43;100568.91;3565344;40;20104;-68
2021/12/25 08:42:18;;;;;;;12.95;10.73;;;;;;;2.01;78.48;100556.00;3575750;40;20089;-68
2021/12/25 08:45:05;;;;;;;11.38;9.80;;;;;;;2.14;78.46;100582.13;3574068;40;20414;-69
2021/12/25 08:47:36;;;;;;;12.38;9.77;;;;;;;2.09;78.17;100580.50;3578262;40;20100;-68
2021/12/25 08:50:10;;;;;;;12.82;9.80;;;;;;;1.93;77.59;100565.09;3579474;40;20061;-69
2021/12/25 08:52:36;;;;;;;;;;;;;;;2.05;77.28;100594.75;3569460;40;20053;-69
2021/12/25 08:55:03;;;;;;;12.65;10.30;;;;;;;2.05;77.67;100599.19;3574492;40;19947;-69
2021/12/25 08:57:28;;;;;;;11.93;10.52;;;;;;;2.04;77.95;100590.38;3572903;40;20041;-68
2021/12/25 08:59:56;;;;;;;15.15;10.95;;;;;;;2.07;77.98;100594.72;3574333;40;20064;-68
2021/12/25 09:02:24;;;;;;;14.05;10.88;;;;;;;1.87;77.95;100558.19;3579207;40;20088;-69
2021/12/25 09:04:52;;;;;;;13.02;10.65;;;;;;;2.11;77.70;100595.50;3576274;40;20083;-69
2021/12/25 09:07:19;;;;;;;14.60;10.82;;;;;;;2.11;78.55;100593.69;3574222;40;20056;-68
2021/12/25 09:09:44;;;;;;;13.20;10.20;;;;;;;2.12;78.09;100594.56;3577691;40;20126;-69
2021/12/25 09:12:14;;;;;;;11.57;10.00;;;;;;;2.09;77.14;100595.53;3578536;40;20064;-69
2021/12/25 09:14:40;;;;;;;13.25;9.55;;;;;;;2.07;76.54;100606.19;3578600;40;20133;-68
2021/12/25 09:17:08;;;;;;;12.30;10.73;;;;;;;2.05;78.08;100600.06;3577318;40;20052;-68
2021/12/25 09:19:34;;;;;;;11.27;10.07;;;;;;;1.97;76.97;100591.47;3569543;40;20048;-69
2021/12/25 09:22:00;;;;;;;10.98;9.88;;;;;;;2.07;77.35;100606.19;3580438;40;20294;-68
2021/12/25 09:24:25;;;;;;;11.85;9.48;;;;;;;2.02;76.49;100605.44;3567980;40;20051;-69
2021/12/25 09:26:51;;;;;;;12.52;9.68;;;;;;;2.05;76.79;100612.44;3573553;40;20056;-69
2021/12/25 09:29:17;;;;;;;12.23;9.73;;;;;;;2.02;76.32;100610.75;3576617;40;20052;-68
2021/12/25 09:31:43;;;;;;;10.35;9.35;;;;;;;1.98;76.54;100601.16;3576052;40;20064;-68
2021/12/25 09:34:09;;;;;;;11.38;8.82;;;;;;;1.97;76.88;100602.09;3577327;40;20057;-69
2021/12/25 09:36:36;;;;;;;11.35;10.00;;;;;;;1.95;76.34;100609.22;3576860;40;20429;-68
2021/12/25 09:39:06;;;;;;;10.52;9.43;;;;;;;1.94;76.47;100607.47;3577394;40;20064;-68
2021/12/25 09:41:33;;;;;;;10.38;9.27;;;;;;;1.94;75.92;100606.63;3575323;40;20056;-67
2021/12/25 09:44:01;;;;;;;13.25;9.07;;;;;;;1.91;76.30;100614.66;3579253;40;20379;-68
2021/12/25 09:46:27;;;;;;;10.30;8.18;;;;;;;1.73;76.10;100586.91;3577993;40;20059;-68
2021/12/25 09:48:54;;;;;;;13.20;9.70;;;;;;;1.92;76.48;100619.03;3567920;40;20053;-67
2021/12/25 09:51:21;;;;;;;11.88;9.68;;;;;;;1.95;76.85;100619.81;3579293;40;20048;-67
2021/12/25 09:54:02;;;;;;;10.70;8.07;;;;;;;1.96;76.55;100623.31;3569540;40;20390;-67
2021/12/25 09:56:30;;;;;;;10.95;9.10;;;;;;;1.77;75.05;100600.00;3571835;40;20056;-67
2021/12/25 09:58:56;;;;;;;10.95;8.43;;;;;;;1.70;75.34;100603.75;3575965;40;20040;-68
2021/12/25 10:01:32;;;;;;;11.18;8.90;;;;;;;1.85;75.49;100628.94;3576437;40;20067;-67
2021/12/25 10:04:00;;;;;;;10.98;8.90;;;;;;;1.71;75.62;100608.13;3575251;40;20138;-67
2021/12/25 10:06:37;;;;;;;10.40;8.65;;;;;;;1.88;75.09;100650.06;3577234;40;20100;-67
2021/12/25 10:09:21;;;;;;;10.57;8.77;;;;;;;1.85;74.51;100658.09;3568259;40;20096;-66
2021/12/25 10:12:15;;;;;;;11.00;9.15;;;;;;;1.83;74.84;100651.97;3577515;40;20084;-66
2021/12/25 10:14:51;;;;;;;11.45;8.82;;;;;;;1.74;75.11;100637.19;3569407;40;20059;-66
2021/12/25 10:17:24;;;;;;;11.02;9.18;;;;;;;1.88;75.59;100655.38;3576052;40;20130;-66
2021/12/25 10:20:11;;;;;;;11.57;9.52;;;;;;;1.85;75.04;100660.75;3576102;40;20385;-66
2021/12/25 10:23:13;;;;;;;11.55;9.60;;;;;;;1.84;75.47;100659.88;3578073;40;20044;-66
2021/12/25 10:26:03;;;;;;;9.82;8.82;;;;;;;1.88;75.24;100654.50;3577822;40;20048;-66
2021/12/25 10:28:37;;;;;;;11.90;9.90;;;;;;;1.92;75.74;100662.31;3579951;40;20052;-66
2021/12/25 10:31:13;;;;;;;10.63;8.20;;;;;;;1.88;75.53;100658.00;3573969;40;20065;-66
2021/12/25 10:33:47;;;;;;;10.30;8.45;;;;;;;1.89;74.55;100651.78;3578971;40;20067;-66
2021/12/25 10:36:33;;;;;;;11.30;8.80;;;;;;;1.71;74.84;100628.47;3575182;40;20052;-66
2021/12/25 10:39:10;;;;;;;11.52;9.55;;;;;;;1.91;75.20;100649.97;3577468;40;20089;-67
2021/12/25 10:41:41;;;;;;;11.80;8.32;;;;;;;1.90;74.72;100650.88;3575522;40;20381;-67
2021/12/25 10:44:16;;;;;;;10.80;9.30;;;;;;;1.92;75.70;100657.00;3576946;40;20076;-66
2021/12/25 10:46:57;;;;;;;9.85;8.75;;;;;;;1.92;74.59;100651.69;3578791;40;20059;-67
2021/12/25 10:49:29;;;;;;;9.82;8.70;;;;;;;1.95;75.88;100651.63;3577349;40;20056;-66
2021/12/25 10:51:56;;;;;;;10.10;7.68;;;;;;;1.90;73.97;100650.88;3573157;40;20500;-66
2021/12/25 10:54:39;;;;;;;12.57;8.80;;;;;;;1.87;75.40;100653.59;3573219;40;20061;-66
2021/12/25 10:57:05;;;;;;;9.90;8.18;;;;;;;1.85;74.71;100647.50;3575722;40;20056;-66
2021/12/25 10:59:47;;;;;;;9.48;7.60;;;;;;;1.81;73.36;100648.50;3576563;40;20102;-66
2021/12/25 11:02:44;;;;;;;9.40;8.02;;;;;;;1.81;73.56;100644.06;3573086;40;20130;-66
2021/12/25 11:05:46;;;;;;;8.00;7.15;;;;;;;1.79;74.26;100645.88;3577813;40;20114;-66
2021/12/25 11:08:23;;;;;;;8.35;7.07;;;;;;;1.79;72.97;100647.69;3574831;40;20088;-66
2021/12/25 11:10:55;;;;;;;8.30;7.10;;;;;;;1.78;72.91;100643.28;3574236;40;20060;-66
2021/12/25 11:13:52;;;;;;;10.63;6.63;;;;;;;1.77;73.44;100644.19;3575397;40;20063;-66
2021/12/25 11:16:30;;;;;;;8.05;6.85;;;;;;;1.75;73.38;100648.69;3577482;40;20044;-66
2021/12/25 11:19:28;;;;;;;6.60;5.45;;;;;;;1.70;73.22;100655.88;3577256;40;20092;-66
2021/12/25 11:21:57;;;;;;;7.93;5.53;;;;;;;1.68;73.58;100657.69;3575044;40;20480;-66
2021/12/25 11:24:35;;;;;;;7.43;5.82;;;;;;;1.68;73.71;100663.00;3576822;40;20040;-66
2021/12/25 11:27:06;;;;;;;6.35;5.75;;;;;;;1.67;73.78;100661.25;3575318;40;20287;-66
2021/12/25 11:29:37;;;;;;;6.68;5.20;;;;;;;1.68;72.86;100652.41;3576570;40;20093;-66
2021/12/25 11:32:08;;;;;;;6.43;5.75;;;;;;;1.68;73.00;100653.28;3576791;40;20119;-66
2021/12/25 11:34:34;;;;;;;7.53;5.60;;;;;;;1.53;73.24;100621.94;3578787;40;20066;-66
2021/12/25 11:37:01;;;;;;;7.70;6.30;;;;;;;1.71;73.86;100644.34;3577681;40;20060;-66
2021/12/25 11:39:29;;;;;;;5.78;5.28;;;;;;;1.61;73.37;100623.41;3579545;40;20054;-66
2021/12/25 11:42:03;;;;;;;7.30;5.28;;;;;;;1.72;72.69;100630.22;3575259;40;20068;-66
2021/12/25 11:44:45;;;;;;;5.88;5.20;;;;;;;1.72;74.15;100622.28;3573597;40;20322;-67
2021/12/25 11:47:31;;;;;;;7.70;5.18;;;;;;;1.75;73.39;100632.78;3573235;40;20053;-67
2021/12/25 11:50:02;;;;;;;7.28;5.07;;;;;;;1.77;74.00;100638.88;3575624;40;20481;-67
2021/12/25 11:52:34;;;;;;;6.30;4.82;;;;;;;1.73;71.95;100638.13;3576066;40;20053;-67
2021/12/25 11:58:37;;;;;;;4.65;3.78;;;;;;;1.72;72.13;100646.13;3576614;40;20048;-68
2021/12/25 12:01:44;;;;;;;5.38;3.70;;;;;;;1.72;72.04;100644.34;3578632;40;20361;-67
2021/12/25 12:04:09;;;;;;;3.78;3.35;;;;;;;1.76;72.65;100640.69;3577932;40;20052;-67
2021/12/25 12:06:44;;;;;;;5.20;4.15;;;;;;;1.81;72.11;100635.25;3576440;40;20091;-68
2021/12/25 12:09:19;;;;;;;5.25;4.05;;;;;;;1.74;71.80;100617.78;3576604;40;20048;-67
2021/12/25 12:12:12;;;;;;;4.20;3.80;;;;;;;1.90;71.97;100642.06;3582465;40;20072;-68
2021/12/25 12:14:38;;;;;;;4.30;3.50;;;;;;;1.91;71.50;100634.06;3580396;40;20064;-67
2021/12/25 12:17:32;;;;;;;4.60;4.10;;;;;;;1.97;71.20;100636.53;3579271;40;20351;-67
2021/12/25 12:20:03;;;;;;;5.90;4.15;;;;;;;2.01;72.92;100635.53;3574631;40;20053;-67
2021/12/25 12:22:36;;;;;;;5.43;3.80;;;;;;;2.10;72.36;100634.41;3576284;40;20055;-67
2021/12/25 12:25:29;;;;;;;3.65;3.35;;;;;;;2.11;71.17;100622.00;3578304;40;20150;-66
2021/12/25 12:28:01;;;;;;;6.93;4.75;;;;;;;2.13;71.15;100622.84;3582050;40;20056;-66
2021/12/25 12:30:43;;;;;;;4.15;3.55;;;;;;;1.86;71.02;100561.78;3577682;40;20063;-66
2021/12/25 12:33:11;;;;;;;8.15;5.65;;;;;;;2.18;71.17;100610.28;3577764;40;20384;-67
2021/12/25 12:35:45;;;;;;;10.23;6.72;;;;;;;2.20;71.55;100604.03;3577187;40;20107;-67
2021/12/25 12:38:43;;;;;;;4.90;3.75;;;;;;;2.26;71.50;100605.63;3582752;40;20056;-69
2021/12/25 12:41:16;;;;;;;13.63;7.38;;;;;;;2.30;70.96;100604.59;3579173;40;20048;-67
2021/12/25 12:43:53;;;;;;;9.95;6.20;;;;;;;2.32;70.84;100600.13;3577104;40;20048;-67
2021/12/25 12:46:19;;;;;;;6.00;3.60;;;;;;;2.34;71.27;100606.25;3576405;40;20060;-66
2021/12/25 12:49:07;;;;;;;5.00;4.32;;;;;;;2.38;70.64;100607.91;3578710;40;20052;-67
2021/12/25 12:51:35;;;;;;;3.20;2.90;;;;;;;2.36;71.00;100619.47;3581433;40;20071;-67